sensor_id;sensor_type;location;lat;lon;timestamp;pressure;altitude;pressure_sealevel;temperature;humidity
46836;BME280;32573;51.290;6.926;2024-03-07T00:00:15;101061.44;;;6.72;100.00
46836;BME280;32573;51.290;6.926;2024-03-07T00:02:45;101063.78;;;6.67;100.00
46836;BME280;32573;51.290;6.926;2024-03-07T00:05:15;101064.38;;;6.63;100.00
46836;BME280;32573;51.290;6.926;2024-03-07T00:07:44;101059.00;;;6.60;100.00
46836;BME280;32573;51.290;6.926;2024-03-07T00:10:13;101063.31;;;6.60;100.00
46836;BME280;32573;51.290;6.926;2024-03-07T00:12:43;101063.06;;;6.55;100.00
46836;BME280;32573;51.290;6.926;2024-03-07T00:15:14;101060.28;;;6.52;100.00
46836;BME280;32573;51.290;6.926;2024-03-07T00:17:42;101060.91;;;6.48;100.00
46836;BME280;32573;51.290;6.926;2024-03-07T00:20:11;101065.91;;;6.45;100.00
46836;BME280;32573;51.290;6.926;2024-03-07T00:22:43;101060.56;;;6.42;100.00
46836;BME280;32573;51.290;6.926;2024-03-07T00:25:12;101065.53;;;6.39;100.00
46836;BME280;32573;51.290;6.926;2024-03-07T00:27:47;101069.69;;;6.35;100.00
46836;BME280;32573;51.290;6.926;2024-03-07T00:30:17;101072.00;;;6.31;100.00
46836;BME280;32573;51.290;6.926;2024-03-07T00:32:47;101071.81;;;6.28;100.00
46836;BME280;32573;51.290;6.926;2024-03-07T00:35:16;101073.44;;;6.25;100.00
46836;BME280;32573;51.290;6.926;2024-03-07T00:37:46;101076.63;;;6.21;100.00
46836;BME280;32573;51.290;6.926;2024-03-07T00:40:14;101072.88;;;6.16;100.00
46836;BME280;32573;51.290;6.926;2024-03-07T00:42:42;101070.91;;;6.12;100.00
46836;BME280;32573;51.290;6.926;2024-03-07T00:45:11;101071.63;;;6.10;100.00
46836;BME280;32573;51.290;6.926;2024-03-07T00:47:40;101062.66;;;6.04;100.00
46836;BME280;32573;51.290;6.926;2024-03-07T00:50:09;101060.75;;;6.02;100.00
46836;BME280;32573;51.290;6.926;2024-03-07T00:52:38;101061.47;;;5.99;100.00
46836;BME280;32573;51.290;6.926;2024-03-07T00:55:07;101062.19;;;5.97;100.00
46836;BME280;32573;51.290;6.926;2024-03-07T00:57:36;101059.38;;;5.94;100.00
46836;BME280;32573;51.290;6.926;2024-03-07T01:00:05;101059.16;;;5.91;100.00
46836;BME280;32573;51.290;6.926;2024-03-07T01:02:40;101064.19;;;5.88;100.00
46836;BME280;32573;51.290;6.926;2024-03-07T01:05:11;101058.00;;;5.86;100.00
46836;BME280;32573;51.290;6.926;2024-03-07T01:07:41;101057.81;;;5.82;100.00
46836;BME280;32573;51.290;6.926;2024-03-07T01:10:10;101063.78;;;5.81;100.00
46836;BME280;32573;51.290;6.926;2024-03-07T01:12:39;101064.50;;;5.79;100.00
46836;BME280;32573;51.290;6.926;2024-03-07T01:15:07;101060.13;;;5.78;100.00
46836;BME280;32573;51.290;6.926;2024-03-07T01:17:38;101067.81;;;5.76;100.00
46836;BME280;32573;51.290;6.926;2024-03-07T01:20:09;101058.06;;;5.72;100.00
46836;BME280;32573;51.290;6.926;2024-03-07T01:22:38;101056.22;;;5.71;100.00
46836;BME280;32573;51.290;6.926;2024-03-07T01:25:07;101056.88;;;5.67;100.00
46836;BME280;32573;51.290;6.926;2024-03-07T01:27:35;101053.28;;;5.65;100.00
46836;BME280;32573;51.290;6.926;2024-03-07T01:30:05;101049.56;;;5.61;100.00
46836;BME280;32573;51.290;6.926;2024-03-07T01:32:35;101048.50;;;5.58;100.00
46836;BME280;32573;51.290;6.926;2024-03-07T01:35:04;101044.00;;;5.55;100.00
46836;BME280;32573;51.290;6.926;2024-03-07T01:37:35;101044.72;;;5.53;100.00
46836;BME280;32573;51.290;6.926;2024-03-07T01:40:04;101041.13;;;5.51;100.00
46836;BME280;32573;51.290;6.926;2024-03-07T01:42:33;101044.53;;;5.50;100.00
46836;BME280;32573;51.290;6.926;2024-03-07T01:45:03;101042.72;;;5.49;100.00
46836;BME280;32573;51.290;6.926;2024-03-07T01:47:31;101041.84;;;5.48;100.00
46836;BME280;32573;51.290;6.926;2024-03-07T01:50:00;101040.25;;;5.50;100.00
46836;BME280;32573;51.290;6.926;2024-03-07T01:52:29;101026.53;;;5.53;100.00
46836;BME280;32573;51.290;6.926;2024-03-07T01:54:59;101031.91;;;5.56;100.00
46836;BME280;32573;51.290;6.926;2024-03-07T01:57:28;101030.44;;;5.59;100.00
46836;BME280;32573;51.290;6.926;2024-03-07T01:59:57;101029.50;;;5.59;100.00
46836;BME280;32573;51.290;6.926;2024-03-07T02:02:25;101028.81;;;5.61;100.00
46836;BME280;32573;51.290;6.926;2024-03-07T02:04:54;101024.72;;;5.65;100.00
46836;BME280;32573;51.290;6.926;2024-03-07T02:07:22;101023.09;;;5.67;100.00
46836;BME280;32573;51.290;6.926;2024-03-07T02:10:00;101016.31;;;5.69;100.00
46836;BME280;32573;51.290;6.926;2024-03-07T02:12:29;101016.50;;;5.72;100.00
46836;BME280;32573;51.290;6.926;2024-03-07T02:14:57;101020.09;;;5.74;100.00
46836;BME280;32573;51.290;6.926;2024-03-07T02:17:26;101015.78;;;5.75;100.00
46836;BME280;32573;51.290;6.926;2024-03-07T02:19:55;101020.28;;;5.77;100.00
46836;BME280;32573;51.290;6.926;2024-03-07T02:22:24;101015.25;;;5.80;100.00
46836;BME280;32573;51.290;6.926;2024-03-07T02:24:53;101012.75;;;5.82;100.00
46836;BME280;32573;51.290;6.926;2024-03-07T02:27:21;101012.03;;;5.84;100.00
46836;BME280;32573;51.290;6.926;2024-03-07T02:29:49;101009.53;;;5.86;100.00
46836;BME280;32573;51.290;6.926;2024-03-07T02:32:18;101019.19;;;5.89;100.00
46836;BME280;32573;51.290;6.926;2024-03-07T02:34:46;101002.00;;;5.91;100.00
46836;BME280;32573;51.290;6.926;2024-03-07T02:37:15;101002.91;;;5.91;100.00
46836;BME280;32573;51.290;6.926;2024-03-07T02:39:44;101005.59;;;5.93;100.00
46836;BME280;32573;51.290;6.926;2024-03-07T02:42:13;101003.91;;;5.93;100.00
46836;BME280;32573;51.290;6.926;2024-03-07T02:44:41;100998.69;;;5.93;100.00
46836;BME280;32573;51.290;6.926;2024-03-07T02:47:09;101000.41;;;5.93;100.00
46836;BME280;32573;51.290;6.926;2024-03-07T02:49:38;100998.63;;;5.92;100.00
46836;BME280;32573;51.290;6.926;2024-03-07T02:52:06;100990.72;;;5.90;100.00
46836;BME280;32573;51.290;6.926;2024-03-07T02:54:35;100991.44;;;5.88;100.00
46836;BME280;32573;51.290;6.926;2024-03-07T02:57:04;100990.56;;;5.87;100.00
46836;BME280;32573;51.290;6.926;2024-03-07T02:59:33;100991.44;;;5.88;100.00
46836;BME280;32573;51.290;6.926;2024-03-07T03:02:01;100992.25;;;5.87;100.00
46836;BME280;32573;51.290;6.926;2024-03-07T03:04:29;100986.13;;;5.86;100.00
46836;BME280;32573;51.290;6.926;2024-03-07T03:06:58;100980.88;;;5.84;100.00
46836;BME280;32573;51.290;6.926;2024-03-07T03:09:26;100982.47;;;5.82;100.00
46836;BME280;32573;51.290;6.926;2024-03-07T03:11:55;100980.66;;;5.81;100.00
46836;BME280;32573;51.290;6.926;2024-03-07T03:14:25;100978.00;;;5.80;100.00
46836;BME280;32573;51.290;6.926;2024-03-07T03:16:53;100979.59;;;5.78;100.00
46836;BME280;32573;51.290;6.926;2024-03-07T03:19:23;100976.91;;;5.76;100.00
46836;BME280;32573;51.290;6.926;2024-03-07T03:21:53;100974.31;;;5.76;100.00
46836;BME280;32573;51.290;6.926;2024-03-07T03:24:22;100969.91;;;5.75;100.00
46836;BME280;32573;51.290;6.926;2024-03-07T03:26:51;100973.34;;;5.74;100.00
46836;BME280;32573;51.290;6.926;2024-03-07T03:29:19;100968.84;;;5.72;100.00
46836;BME280;32573;51.290;6.926;2024-03-07T03:31:49;100966.16;;;5.70;100.00
46836;BME280;32573;51.290;6.926;2024-03-07T03:34:17;100965.97;;;5.67;100.00
46836;BME280;32573;51.290;6.926;2024-03-07T03:36:45;100958.78;;;5.63;100.00
46836;BME280;32573;51.290;6.926;2024-03-07T03:39:14;100959.59;;;5.62;100.00
46836;BME280;32573;51.290;6.926;2024-03-07T03:41:42;100962.91;;;5.59;100.00
46836;BME280;32573;51.290;6.926;2024-03-07T03:44:11;100958.44;;;5.57;100.00
46836;BME280;32573;51.290;6.926;2024-03-07T03:46:39;100956.63;;;5.56;100.00
46836;BME280;32573;51.290;6.926;2024-03-07T03:49:10;100959.31;;;5.57;100.00
46836;BME280;32573;51.290;6.926;2024-03-07T03:51:39;100951.59;;;5.59;100.00
46836;BME280;32573;51.290;6.926;2024-03-07T03:54:09;100951.59;;;5.59;100.00
46836;BME280;32573;51.290;6.926;2024-03-07T03:56:37;100945.53;;;5.58;100.00
46836;BME280;32573;51.290;6.926;2024-03-07T03:59:06;100958.63;;;5.60;100.00
46836;BME280;32573;51.290;6.926;2024-03-07T04:01:35;100955.19;;;5.61;100.00
46836;BME280;32573;51.290;6.926;2024-03-07T04:04:04;100946.53;;;5.60;100.00
46836;BME280;32573;51.290;6.926;2024-03-07T04:06:35;100950.91;;;5.61;100.00
46836;BME280;32573;51.290;6.926;2024-03-07T04:09:03;100944.81;;;5.61;100.00
46836;BME280;32573;51.290;6.926;2024-03-07T04:11:32;100950.91;;;5.61;100.00
46836;BME280;32573;51.290;6.926;2024-03-07T04:14:01;100946.63;;;5.62;100.00
46836;BME280;32573;51.290;6.926;2024-03-07T04:16:29;100939.63;;;5.61;100.00
46836;BME280;32573;51.290;6.926;2024-03-07T04:18:57;100938.72;;;5.60;100.00
46836;BME280;32573;51.290;6.926;2024-03-07T04:21:26;100943.09;;;5.61;100.00
46836;BME280;32573;51.290;6.926;2024-03-07T04:23:55;100937.84;;;5.60;100.00
46836;BME280;32573;51.290;6.926;2024-03-07T04:26:23;100943.91;;;5.60;100.00
46836;BME280;32573;51.290;6.926;2024-03-07T04:28:53;100942.22;;;5.61;100.00
46836;BME280;32573;51.290;6.926;2024-03-07T04:31:21;100936.03;;;5.59;100.00
46836;BME280;32573;51.290;6.926;2024-03-07T04:33:50;100937.84;;;5.60;100.00
46836;BME280;32573;51.290;6.926;2024-03-07T04:36:21;100937.84;;;5.60;100.00
46836;BME280;32573;51.290;6.926;2024-03-07T04:38:50;100933.53;;;5.60;100.00
46836;BME280;32573;51.290;6.926;2024-03-07T04:41:20;100934.44;;;5.61;100.00
46836;BME280;32573;51.290;6.926;2024-03-07T04:43:49;100930.13;;;5.61;100.00
46836;BME280;32573;51.290;6.926;2024-03-07T04:46:17;100935.31;;;5.61;100.00
46836;BME280;32573;51.290;6.926;2024-03-07T04:48:49;100938.03;;;5.63;100.00
46836;BME280;32573;51.290;6.926;2024-03-07T04:51:17;100938.84;;;5.62;100.00
46836;BME280;32573;51.290;6.926;2024-03-07T04:53:45;100936.25;;;5.62;100.00
46836;BME280;32573;51.290;6.926;2024-03-07T04:56:14;100933.53;;;5.60;100.00
46836;BME280;32573;51.290;6.926;2024-03-07T04:58:44;100932.66;;;5.60;100.00
46836;BME280;32573;51.290;6.926;2024-03-07T05:01:12;100933.34;;;5.57;100.00
46836;BME280;32573;51.290;6.926;2024-03-07T05:03:40;100931.47;;;5.55;100.00
46836;BME280;32573;51.290;6.926;2024-03-07T05:06:10;100936.56;;;5.53;100.00
46836;BME280;32573;51.290;6.926;2024-03-07T05:08:38;100942.47;;;5.51;100.00
46836;BME280;32573;51.290;6.926;2024-03-07T05:11:07;100938.00;;;5.48;100.00
46836;BME280;32573;51.290;6.926;2024-03-07T05:13:35;100940.50;;;5.47;100.00
46836;BME280;32573;51.290;6.926;2024-03-07T05:16:06;100936.09;;;5.46;100.00
46836;BME280;32573;51.290;6.926;2024-03-07T05:18:35;100932.63;;;5.45;100.00
46836;BME280;32573;51.290;6.926;2024-03-07T05:21:03;100934.22;;;5.43;100.00
46836;BME280;32573;51.290;6.926;2024-03-07T05:23:58;100932.34;;;5.40;100.00
46836;BME280;32573;51.290;6.926;2024-03-07T05:26:26;100936.72;;;5.41;100.00
46836;BME280;32573;51.290;6.926;2024-03-07T05:28:55;100938.53;;;5.43;100.00
46836;BME280;32573;51.290;6.926;2024-03-07T05:31:25;100937.69;;;5.44;100.00
46836;BME280;32573;51.290;6.926;2024-03-07T05:33:53;100940.31;;;5.44;100.00
46836;BME280;32573;51.290;6.926;2024-03-07T05:36:21;100945.59;;;5.45;100.00
46836;BME280;32573;51.290;6.926;2024-03-07T05:38:50;100940.31;;;5.44;100.00
46836;BME280;32573;51.290;6.926;2024-03-07T05:41:19;100940.31;;;5.44;100.00
46836;BME280;32573;51.290;6.926;2024-03-07T05:43:47;100943.72;;;5.43;100.00
46836;BME280;32573;51.290;6.926;2024-03-07T05:46:18;100940.31;;;5.44;100.00
46836;BME280;32573;51.290;6.926;2024-03-07T05:48:48;100938.41;;;5.41;100.00
46836;BME280;32573;51.290;6.926;2024-03-07T05:51:19;100934.94;;;5.40;100.00
46836;BME280;32573;51.290;6.926;2024-03-07T05:53:47;100935.75;;;5.39;100.00
46836;BME280;32573;51.290;6.926;2024-03-07T05:56:16;100944.31;;;5.38;100.00
46836;BME280;32573;51.290;6.926;2024-03-07T05:58:44;100944.25;;;5.37;100.00
46836;BME280;32573;51.290;6.926;2024-03-07T06:01:12;100934.56;;;5.34;100.00
46836;BME280;32573;51.290;6.926;2024-03-07T06:03:40;100939.53;;;5.31;100.00
46836;BME280;32573;51.290;6.926;2024-03-07T06:06:10;100939.53;;;5.31;100.00
46836;BME280;32573;51.290;6.926;2024-03-07T06:08:39;100936.88;;;5.30;100.00
46836;BME280;32573;51.290;6.926;2024-03-07T06:11:10;100944.56;;;5.28;100.00
46836;BME280;32573;51.290;6.926;2024-03-07T06:13:40;100947.97;;;5.27;100.00
46836;BME280;32573;51.290;6.926;2024-03-07T06:16:08;100946.16;;;5.26;100.00
46836;BME280;32573;51.290;6.926;2024-03-07T06:18:37;100947.78;;;5.24;100.00
46836;BME280;32573;51.290;6.926;2024-03-07T06:21:05;100940.78;;;5.23;100.00
46836;BME280;32573;51.290;6.926;2024-03-07T06:23:36;100944.19;;;5.22;100.00
46836;BME280;32573;51.290;6.926;2024-03-07T06:26:05;100944.19;;;5.22;100.00
46836;BME280;32573;51.290;6.926;2024-03-07T06:28:40;100943.97;;;5.19;100.00
46836;BME280;32573;51.290;6.926;2024-03-07T06:31:08;100942.19;;;5.18;100.00
46836;BME280;32573;51.290;6.926;2024-03-07T06:33:36;100943.00;;;5.17;100.00
46836;BME280;32573;51.290;6.926;2024-03-07T06:36:05;100943.91;;;5.17;100.00
46836;BME280;32573;51.290;6.926;2024-03-07T06:38:35;100945.59;;;5.17;100.00
46836;BME280;32573;51.290;6.926;2024-03-07T06:41:03;100942.19;;;5.18;100.00
46836;BME280;32573;51.290;6.926;2024-03-07T06:43:32;100944.78;;;5.18;100.00
46836;BME280;32573;51.290;6.926;2024-03-07T06:46:00;100942.19;;;5.18;100.00
46836;BME280;32573;51.290;6.926;2024-03-07T06:48:29;100942.19;;;5.18;100.00
46836;BME280;32573;51.290;6.926;2024-03-07T06:50:58;100943.09;;;5.18;100.00
46836;BME280;32573;51.290;6.926;2024-03-07T06:53:26;100940.50;;;5.18;100.00
46836;BME280;32573;51.290;6.926;2024-03-07T06:55:57;100941.38;;;5.19;100.00
46836;BME280;32573;51.290;6.926;2024-03-07T06:58:25;100946.56;;;5.19;100.00
46836;BME280;32573;51.290;6.926;2024-03-07T07:00:57;100945.78;;;5.20;100.00
46836;BME280;32573;51.290;6.926;2024-03-07T07:03:27;100952.75;;;5.21;100.00
46836;BME280;32573;51.290;6.926;2024-03-07T07:05:56;100951.97;;;5.22;100.00
46836;BME280;32573;51.290;6.926;2024-03-07T07:08:24;100945.97;;;5.23;100.00
46836;BME280;32573;51.290;6.926;2024-03-07T07:10:53;100948.69;;;5.25;100.00
46836;BME280;32573;51.290;6.926;2024-03-07T07:13:24;100950.44;;;5.26;100.00
46836;BME280;32573;51.290;6.926;2024-03-07T07:15:53;100948.84;;;5.28;100.00
46836;BME280;32573;51.290;6.926;2024-03-07T07:18:21;100951.56;;;5.29;100.00
46836;BME280;32573;51.290;6.926;2024-03-07T07:20:51;100951.63;;;5.31;100.00
46836;BME280;32573;51.290;6.926;2024-03-07T07:23:20;100955.13;;;5.31;100.00
46836;BME280;32573;51.290;6.926;2024-03-07T07:25:49;100951.03;;;5.35;100.00
46836;BME280;32573;51.290;6.926;2024-03-07T07:28:17;100953.69;;;5.36;100.00
46836;BME280;32573;51.290;6.926;2024-03-07T07:30:47;100954.81;;;5.40;100.00
46836;BME280;32573;51.290;6.926;2024-03-07T07:33:16;100954.88;;;5.41;100.00
46836;BME280;32573;51.290;6.926;2024-03-07T07:35:45;100954.97;;;5.43;100.00
46836;BME280;32573;51.290;6.926;2024-03-07T07:38:13;100956.09;;;5.47;100.00
46836;BME280;32573;51.290;6.926;2024-03-07T07:40:43;100945.88;;;5.50;100.00
46836;BME280;32573;51.290;6.926;2024-03-07T07:43:12;100953.03;;;5.54;100.00
46836;BME280;32573;51.290;6.926;2024-03-07T07:45:53;100949.81;;;5.58;100.00
46836;BME280;32573;51.290;6.926;2024-03-07T07:48:21;100946.63;;;5.62;100.00
46836;BME280;32573;51.290;6.926;2024-03-07T07:50:50;100940.78;;;5.66;100.00
46836;BME280;32573;51.290;6.926;2024-03-07T07:53:19;100938.41;;;5.69;100.00
46836;BME280;32573;51.290;6.926;2024-03-07T07:55:47;100939.47;;;5.73;100.00
46836;BME280;32573;51.290;6.926;2024-03-07T07:58:17;100939.66;;;5.76;100.00
46836;BME280;32573;51.290;6.926;2024-03-07T08:00:45;100940.81;;;5.81;100.00
46836;BME280;32573;51.290;6.926;2024-03-07T08:03:17;100938.38;;;5.84;100.00
46836;BME280;32573;51.290;6.926;2024-03-07T08:05:45;100937.88;;;5.90;100.00
46836;BME280;32573;51.290;6.926;2024-03-07T08:08:15;100936.34;;;5.93;100.00
46836;BME280;32573;51.290;6.926;2024-03-07T08:10:45;100940.06;;;5.97;100.00
46836;BME280;32573;51.290;6.926;2024-03-07T08:13:15;100951.44;;;5.99;100.00
46836;BME280;32573;51.290;6.926;2024-03-07T08:15:43;100943.13;;;6.04;100.00
46836;BME280;32573;51.290;6.926;2024-03-07T08:18:11;100937.22;;;6.07;100.00
46836;BME280;32573;51.290;6.926;2024-03-07T08:20:41;100934.78;;;6.10;100.00
46836;BME280;32573;51.290;6.926;2024-03-07T08:23:11;100937.53;;;6.13;100.00
46836;BME280;32573;51.290;6.926;2024-03-07T08:25:40;100939.53;;;6.17;100.00
46836;BME280;32573;51.290;6.926;2024-03-07T08:28:08;100941.47;;;6.21;100.00
46836;BME280;32573;51.290;6.926;2024-03-07T08:30:45;100942.47;;;6.23;100.00
46836;BME280;32573;51.290;6.926;2024-03-07T08:33:14;100942.75;;;6.28;100.00
46836;BME280;32573;51.290;6.926;2024-03-07T08:35:42;100933.44;;;6.32;100.00
46836;BME280;32573;51.290;6.926;2024-03-07T08:38:12;100933.59;;;6.35;100.00
46836;BME280;32573;51.290;6.926;2024-03-07T08:40:41;100937.25;;;6.38;100.00
46836;BME280;32573;51.290;6.926;2024-03-07T08:43:09;100940.03;;;6.41;100.00
46836;BME280;32573;51.290;6.926;2024-03-07T08:45:37;100932.50;;;6.46;100.00
46836;BME280;32573;51.290;6.926;2024-03-07T08:48:07;100935.44;;;6.52;100.00
46836;BME280;32573;51.290;6.926;2024-03-07T08:50:37;100935.72;;;6.57;100.00
46836;BME280;32573;51.290;6.926;2024-03-07T08:53:06;100938.56;;;6.61;100.00
46836;BME280;32573;51.290;6.926;2024-03-07T08:55:35;100932.81;;;6.67;100.00
46836;BME280;32573;51.290;6.926;2024-03-07T08:58:04;100932.25;;;6.73;100.00
46836;BME280;32573;51.290;6.926;2024-03-07T09:00:35;100927.38;;;6.79;100.00
46836;BME280;32573;51.290;6.926;2024-03-07T09:03:07;100929.34;;;6.83;100.00
46836;BME280;32573;51.290;6.926;2024-03-07T09:05:40;100922.69;;;6.88;100.00
46836;BME280;32573;51.290;6.926;2024-03-07T09:08:09;100926.38;;;6.91;100.00
46836;BME280;32573;51.290;6.926;2024-03-07T09:10:37;100913.59;;;6.96;100.00
46836;BME280;32573;51.290;6.926;2024-03-07T09:13:10;100912.97;;;7.00;100.00
46836;BME280;32573;51.290;6.926;2024-03-07T09:15:39;100908.91;;;7.05;100.00
46836;BME280;32573;51.290;6.926;2024-03-07T09:18:08;100911.75;;;7.10;100.00
46836;BME280;32573;51.290;6.926;2024-03-07T09:20:37;100910.19;;;7.13;100.00
46836;BME280;32573;51.290;6.926;2024-03-07T09:23:06;100912.97;;;7.17;100.00
46836;BME280;32573;51.290;6.926;2024-03-07T09:25:34;100912.41;;;7.22;100.00
46836;BME280;32573;51.290;6.926;2024-03-07T09:28:03;100913.56;;;7.27;100.00
46836;BME280;32573;51.290;6.926;2024-03-07T09:30:33;100913.84;;;7.33;100.00
46836;BME280;32573;51.290;6.926;2024-03-07T09:33:05;100918.53;;;7.39;100.00
46836;BME280;32573;51.290;6.926;2024-03-07T09:35:39;100916.22;;;7.45;100.00
46836;BME280;32573;51.290;6.926;2024-03-07T09:38:07;100911.25;;;7.50;100.00
46836;BME280;32573;51.290;6.926;2024-03-07T09:40:36;100918.44;;;7.54;100.00
46836;BME280;32573;51.290;6.926;2024-03-07T09:43:06;100912.63;;;7.60;100.00
46836;BME280;32573;51.290;6.926;2024-03-07T09:45:38;100918.16;;;7.66;100.00
46836;BME280;32573;51.290;6.926;2024-03-07T09:48:11;100921.88;;;7.71;100.00
46836;BME280;32573;51.290;6.926;2024-03-07T09:50:43;100914.41;;;7.77;100.00
46836;BME280;32573;51.290;6.926;2024-03-07T09:53:13;100908.50;;;7.81;100.00
46836;BME280;32573;51.290;6.926;2024-03-07T09:55:43;100905.25;;;7.85;100.00
46836;BME280;32573;51.290;6.926;2024-03-07T09:58:12;100914.19;;;7.90;100.00
46836;BME280;32573;51.290;6.926;2024-03-07T10:00:43;100914.34;;;7.93;100.00
46836;BME280;32573;51.290;6.926;2024-03-07T10:03:12;100916.31;;;7.97;100.00
46836;BME280;32573;51.290;6.926;2024-03-07T10:05:42;100898.19;;;8.00;100.00
46836;BME280;32573;51.290;6.926;2024-03-07T10:08:11;100914.09;;;8.05;100.00
46836;BME280;32573;51.290;6.926;2024-03-07T10:10:40;100898.53;;;8.07;100.00
46836;BME280;32573;51.290;6.926;2024-03-07T10:13:09;100905.59;;;8.09;100.00
46836;BME280;32573;51.290;6.926;2024-03-07T10:15:38;100902.41;;;8.15;100.00
46836;BME280;32573;51.290;6.926;2024-03-07T10:18:10;100899.13;;;8.19;100.00
46836;BME280;32573;51.290;6.926;2024-03-07T10:20:43;100901.00;;;8.21;100.00
46836;BME280;32573;51.290;6.926;2024-03-07T10:23:12;100906.41;;;8.26;100.00
46836;BME280;32573;51.290;6.926;2024-03-07T10:25:40;100895.31;;;8.30;100.00
46836;BME280;32573;51.290;6.926;2024-03-07T10:28:09;100899.06;;;8.35;100.00
46836;BME280;32573;51.290;6.926;2024-03-07T10:30:41;100892.38;;;8.40;100.00
46836;BME280;32573;51.290;6.926;2024-03-07T10:33:12;100889.91;;;8.43;100.00
46836;BME280;32573;51.290;6.926;2024-03-07T10:35:46;100884.03;;;8.48;100.00
46836;BME280;32573;51.290;6.926;2024-03-07T10:38:16;100879.91;;;8.53;100.00
46836;BME280;32573;51.290;6.926;2024-03-07T10:40:47;100877.44;;;8.56;100.00
46836;BME280;32573;51.290;6.926;2024-03-07T10:43:19;100877.63;;;8.59;100.00
46836;BME280;32573;51.290;6.926;2024-03-07T10:45:49;100879.41;;;8.60;100.00
46836;BME280;32573;51.290;6.926;2024-03-07T10:48:19;100874.31;;;8.63;100.00
46836;BME280;32573;51.290;6.926;2024-03-07T10:51:02;100872.69;;;8.65;100.00
46836;BME280;32573;51.290;6.926;2024-03-07T10:53:40;100864.19;;;8.69;100.00
46836;BME280;32573;51.290;6.926;2024-03-07T10:56:27;100869.41;;;8.69;100.00
46836;BME280;32573;51.290;6.926;2024-03-07T10:58:58;100860.59;;;8.67;100.00
46836;BME280;32573;51.290;6.926;2024-03-07T11:01:31;100859.75;;;8.68;100.00
46836;BME280;32573;51.290;6.926;2024-03-07T11:04:01;100857.31;;;8.71;100.00
46836;BME280;32573;51.290;6.926;2024-03-07T11:06:34;100859.22;;;8.75;100.00
46836;BME280;32573;51.290;6.926;2024-03-07T11:09:04;100851.50;;;8.77;100.00
46836;BME280;32573;51.290;6.926;2024-03-07T11:11:39;100852.50;;;8.80;100.00
46836;BME280;32573;51.290;6.926;2024-03-07T11:14:11;100846.53;;;8.83;100.00
46836;BME280;32573;51.290;6.926;2024-03-07T11:16:40;100844.91;;;8.85;100.00
46836;BME280;32573;51.290;6.926;2024-03-07T11:19:19;100838.03;;;8.87;100.00
46836;BME280;32573;51.290;6.926;2024-03-07T11:21:49;100837.41;;;8.93;100.00
46836;BME280;32573;51.290;6.926;2024-03-07T11:24:25;100827.09;;;8.96;100.00
46836;BME280;32573;51.290;6.926;2024-03-07T11:26:56;100823.81;;;9.00;100.00
46836;BME280;32573;51.290;6.926;2024-03-07T11:29:42;100832.66;;;9.03;100.00
46836;BME280;32573;51.290;6.926;2024-03-07T11:32:12;100828.50;;;9.07;100.00
46836;BME280;32573;51.290;6.926;2024-03-07T11:34:42;100821.66;;;9.11;100.00
46836;BME280;32573;51.290;6.926;2024-03-07T11:37:18;100826.28;;;9.16;100.00
46836;BME280;32573;51.290;6.926;2024-03-07T11:39:50;100819.56;;;9.21;100.00
46836;BME280;32573;51.290;6.926;2024-03-07T11:42:25;100807.44;;;9.23;100.00
46836;BME280;32573;51.290;6.926;2024-03-07T11:44:56;100807.63;;;9.28;100.00
46836;BME280;32573;51.290;6.926;2024-03-07T11:47:25;100806.06;;;9.32;100.00
46836;BME280;32573;51.290;6.926;2024-03-07T11:49:56;100802.72;;;9.36;100.00
46836;BME280;32573;51.290;6.926;2024-03-07T11:52:27;100793.31;;;9.39;100.00
46836;BME280;32573;51.290;6.926;2024-03-07T11:54:55;100793.44;;;9.42;100.00
46836;BME280;32573;51.290;6.926;2024-03-07T11:57:31;100787.47;;;9.45;100.00
46836;BME280;32573;51.290;6.926;2024-03-07T12:00:01;100786.69;;;9.47;100.00
46836;BME280;32573;51.290;6.926;2024-03-07T12:02:38;100780.72;;;9.50;100.00
46836;BME280;32573;51.290;6.926;2024-03-07T12:05:08;100778.19;;;9.52;100.00
46836;BME280;32573;51.290;6.926;2024-03-07T12:07:38;100774.72;;;9.53;100.00
46836;BME280;32573;51.290;6.926;2024-03-07T12:10:07;100775.59;;;9.53;100.00
46836;BME280;32573;51.290;6.926;2024-03-07T12:12:37;100768.72;;;9.55;100.00
46836;BME280;32573;51.290;6.926;2024-03-07T12:15:07;100767.06;;;9.57;100.00
46836;BME280;32573;51.290;6.926;2024-03-07T12:17:45;100772.41;;;9.60;100.00
46836;BME280;32573;51.290;6.926;2024-03-07T12:20:17;100765.53;;;9.62;100.00
46836;BME280;32573;51.290;6.926;2024-03-07T12:23:00;100764.69;;;9.63;100.00
46836;BME280;32573;51.290;6.926;2024-03-07T12:25:30;100756.06;;;9.64;100.00
46836;BME280;32573;51.290;6.926;2024-03-07T12:28:04;100749.94;;;9.64;100.00
46836;BME280;32573;51.290;6.926;2024-03-07T12:30:34;100742.97;;;9.64;100.00
46836;BME280;32573;51.290;6.926;2024-03-07T12:33:05;100737.75;;;9.64;100.00
46836;BME280;32573;51.290;6.926;2024-03-07T12:35:36;100736.88;;;9.64;100.00
46836;BME280;32573;51.290;6.926;2024-03-07T12:38:05;100735.94;;;9.63;100.00
46836;BME280;32573;51.290;6.926;2024-03-07T12:40:35;100730.59;;;9.60;100.00
46836;BME280;32573;51.290;6.926;2024-03-07T12:43:13;100735.84;;;9.60;100.00
46836;BME280;32573;51.290;6.926;2024-03-07T12:45:44;100736.69;;;9.59;100.00
46836;BME280;32573;51.290;6.926;2024-03-07T12:48:12;100727.88;;;9.57;100.00
46836;BME280;32573;51.290;6.926;2024-03-07T12:50:44;100719.06;;;9.55;100.00
46836;BME280;32573;51.290;6.926;2024-03-07T12:53:15;100720.91;;;9.58;100.00
46836;BME280;32573;51.290;6.926;2024-03-07T12:55:45;100720.13;;;9.59;100.00
46836;BME280;32573;51.290;6.926;2024-03-07T12:58:14;100713.16;;;9.59;100.00
46836;BME280;32573;51.290;6.926;2024-03-07T13:00:42;100714.88;;;9.59;100.00
46836;BME280;32573;51.290;6.926;2024-03-07T13:03:11;100712.31;;;9.60;100.00